sensor_id;sensor_type;location;lat;lon;timestamp;pressure;altitude;pressure_sealevel;temperature;humidity
77574;BME280;66710;48.868;9.080;2024-01-06T00:01:24;96875.75;;;3.66;100.00
77574;BME280;66710;48.868;9.080;2024-01-06T00:03:50;96876.53;;;3.67;100.00
77574;BME280;66710;48.868;9.080;2024-01-06T00:06:15;96874.41;;;3.69;100.00
77574;BME280;66710;48.868;9.080;2024-01-06T00:08:40;96873.59;;;3.68;100.00
77574;BME280;66710;48.868;9.080;2024-01-06T00:11:06;96884.31;;;3.63;100.00
77574;BME280;66710;48.868;9.080;2024-01-06T00:13:31;96880.56;;;3.64;100.00
77574;BME280;66710;48.868;9.080;2024-01-06T00:15:56;96876.81;;;3.65;100.00
77574;BME280;66710;48.868;9.080;2024-01-06T00:18:22;96872.50;;;3.64;100.00
77574;BME280;66710;48.868;9.080;2024-01-06T00:20:47;96877.88;;;3.64;100.00
77574;BME280;66710;48.868;9.080;2024-01-06T00:23:13;96879.50;;;3.65;100.00
77574;BME280;66710;48.868;9.080;2024-01-06T00:25:38;96873.56;;;3.63;100.00
77574;BME280;66710;48.868;9.080;2024-01-06T00:28:03;96883.53;;;3.63;100.00
77574;BME280;66710;48.868;9.080;2024-01-06T00:30:29;96892.66;;;3.61;100.00
77574;BME280;66710;48.868;9.080;2024-01-06T00:32:54;96889.81;;;3.73;100.00
77574;BME280;66710;48.868;9.080;2024-01-06T00:35:20;96890.19;;;3.87;100.00
77574;BME280;66710;48.868;9.080;2024-01-06T00:37:45;96886.94;;;3.85;100.00
77574;BME280;66710;48.868;9.080;2024-01-06T00:40:11;96885.56;;;3.83;100.00
77574;BME280;66710;48.868;9.080;2024-01-06T00:42:36;96889.09;;;3.83;100.00
77574;BME280;66710;48.868;9.080;2024-01-06T00:45:01;96888.00;;;3.84;100.00
77574;BME280;66710;48.868;9.080;2024-01-06T00:47:26;96893.34;;;3.79;100.00
77574;BME280;66710;48.868;9.080;2024-01-06T00:49:52;96889.81;;;3.73;100.00
77574;BME280;66710;48.868;9.080;2024-01-06T00:52:17;96893.88;;;3.76;100.00
77574;BME280;66710;48.868;9.080;2024-01-06T00:54:42;96896.59;;;3.76;100.00
77574;BME280;66710;48.868;9.080;2024-01-06T00:57:07;96899.81;;;3.78;100.00
77574;BME280;66710;48.868;9.080;2024-01-06T00:59:33;96904.97;;;3.85;100.00
77574;BME280;66710;48.868;9.080;2024-01-06T01:01:58;96914.75;;;3.91;100.00
77574;BME280;66710;48.868;9.080;2024-01-06T01:04:23;96915.78;;;3.90;100.00
77574;BME280;66710;48.868;9.080;2024-01-06T01:06:49;96917.97;;;3.93;100.00
77574;BME280;66710;48.868;9.080;2024-01-06T01:09:14;96911.00;;;3.92;100.00
77574;BME280;66710;48.868;9.080;2024-01-06T01:11:40;96917.22;;;3.97;100.00
77574;BME280;66710;48.868;9.080;2024-01-06T01:14:06;96916.38;;;3.92;100.00
77574;BME280;66710;48.868;9.080;2024-01-06T01:16:31;96923.97;;;4.00;100.00
77574;BME280;66710;48.868;9.080;2024-01-06T01:18:57;96929.66;;;4.04;100.00
77574;BME280;66710;48.868;9.080;2024-01-06T01:21:22;96924.25;;;4.04;100.00
77574;BME280;66710;48.868;9.080;2024-01-06T01:23:48;96928.31;;;4.01;100.00
77574;BME280;66710;48.868;9.080;2024-01-06T01:26:13;96932.06;;;4.00;100.00
77574;BME280;66710;48.868;9.080;2024-01-06T01:28:38;96937.41;;;3.95;100.00
77574;BME280;66710;48.868;9.080;2024-01-06T01:31:04;96934.75;;;4.00;100.00
77574;BME280;66710;48.868;9.080;2024-01-06T01:33:29;96933.41;;;3.97;100.00
77574;BME280;66710;48.868;9.080;2024-01-06T01:35:54;96934.69;;;3.95;100.00
77574;BME280;66710;48.868;9.080;2024-01-06T01:38:19;96936.63;;;3.99;100.00
77574;BME280;66710;48.868;9.080;2024-01-06T01:40:45;96940.38;;;3.98;100.00
77574;BME280;66710;48.868;9.080;2024-01-06T01:43:19;96935.56;;;4.01;100.00
77574;BME280;66710;48.868;9.080;2024-01-06T01:45:48;96948.78;;;4.02;100.00
77574;BME280;66710;48.868;9.080;2024-01-06T01:48:15;96948.47;;;3.98;100.00
77574;BME280;66710;48.868;9.080;2024-01-06T01:50:40;96951.16;;;3.98;100.00
77574;BME280;66710;48.868;9.080;2024-01-06T01:53:05;96955.19;;;3.96;100.00
77574;BME280;66710;48.868;9.080;2024-01-06T01:55:31;96944.88;;;3.88;100.00
77574;BME280;66710;48.868;9.080;2024-01-06T01:57:56;96957.03;;;3.90;100.00
77574;BME280;66710;48.868;9.080;2024-01-06T02:00:22;96954.34;;;3.90;100.00
77574;BME280;66710;48.868;9.080;2024-01-06T02:02:48;96953.47;;;3.85;100.00
77574;BME280;66710;48.868;9.080;2024-01-06T02:05:17;96959.13;;;3.83;100.00
77574;BME280;66710;48.868;9.080;2024-01-06T02:07:42;96963.97;;;3.86;100.00
77574;BME280;66710;48.868;9.080;2024-01-06T02:10:08;96967.22;;;3.83;100.00
77574;BME280;66710;48.868;9.080;2024-01-06T02:12:33;96960.19;;;3.82;100.00
77574;BME280;66710;48.868;9.080;2024-01-06T02:14:59;96962.13;;;3.87;100.00
77574;BME280;66710;48.868;9.080;2024-01-06T02:17:24;96961.88;;;3.88;100.00
77574;BME280;66710;48.868;9.080;2024-01-06T02:19:50;96958.84;;;3.85;100.00
77574;BME280;66710;48.868;9.080;2024-01-06T02:22:16;96961.53;;;3.79;100.00
77574;BME280;66710;48.868;9.080;2024-01-06T02:24:41;96969.91;;;3.83;100.00
77574;BME280;66710;48.868;9.080;2024-01-06T02:27:06;96968.53;;;3.80;100.00
77574;BME280;66710;48.868;9.080;2024-01-06T02:29:31;96965.88;;;3.86;100.00
77574;BME280;66710;48.868;9.080;2024-01-06T02:31:57;96981.53;;;3.89;100.00
77574;BME280;66710;48.868;9.080;2024-01-06T02:34:23;96982.84;;;3.86;100.00
77574;BME280;66710;48.868;9.080;2024-01-06T02:36:49;96988.03;;;3.93;100.00
77574;BME280;66710;48.868;9.080;2024-01-06T02:39:14;96985.28;;;3.88;100.00
77574;BME280;66710;48.868;9.080;2024-01-06T02:41:39;96980.50;;;3.95;100.00
77574;BME280;66710;48.868;9.080;2024-01-06T02:44:04;96982.41;;;3.94;100.00
77574;BME280;66710;48.868;9.080;2024-01-06T02:46:30;96981.78;;;3.87;100.00
77574;BME280;66710;48.868;9.080;2024-01-06T02:48:55;96986.13;;;3.88;100.00
77574;BME280;66710;48.868;9.080;2024-01-06T02:51:20;96975.94;;;3.95;100.00
77574;BME280;66710;48.868;9.080;2024-01-06T02:53:46;96979.69;;;3.94;100.00
77574;BME280;66710;48.868;9.080;2024-01-06T02:56:11;96980.19;;;3.91;100.00
77574;BME280;66710;48.868;9.080;2024-01-06T02:58:37;96990.97;;;3.91;100.00
77574;BME280;66710;48.868;9.080;2024-01-06T03:01:03;96996.84;;;3.83;100.00
77574;BME280;66710;48.868;9.080;2024-01-06T03:03:28;96995.50;;;3.86;100.00
77574;BME280;66710;48.868;9.080;2024-01-06T03:06:08;96989.81;;;3.82;100.00
77574;BME280;66710;48.868;9.080;2024-01-06T03:08:37;96988.97;;;3.76;100.00
77574;BME280;66710;48.868;9.080;2024-01-06T03:11:02;97004.31;;;3.76;100.00
77574;BME280;66710;48.868;9.080;2024-01-06T03:13:29;96998.69;;;3.83;100.00
77574;BME280;66710;48.868;9.080;2024-01-06T03:15:55;96994.97;;;3.84;100.00
77574;BME280;66710;48.868;9.080;2024-01-06T03:18:20;96992.25;;;3.84;100.00
77574;BME280;66710;48.868;9.080;2024-01-06T03:20:45;96988.16;;;3.76;100.00
77574;BME280;66710;48.868;9.080;2024-01-06T03:23:10;96986.81;;;3.78;100.00
77574;BME280;66710;48.868;9.080;2024-01-06T03:25:36;96985.41;;;3.71;100.00
77574;BME280;66710;48.868;9.080;2024-01-06T03:28:01;96989.97;;;3.70;100.00
77574;BME280;66710;48.868;9.080;2024-01-06T03:30:26;96984.03;;;3.68;100.00
77574;BME280;66710;48.868;9.080;2024-01-06T03:32:51;96984.78;;;3.64;100.00
77574;BME280;66710;48.868;9.080;2024-01-06T03:35:17;96978.63;;;3.68;100.00
77574;BME280;66710;48.868;9.080;2024-01-06T03:37:43;96990.97;;;3.64;100.00
77574;BME280;66710;48.868;9.080;2024-01-06T03:40:08;96982.97;;;3.69;100.00
77574;BME280;66710;48.868;9.080;2024-01-06T03:42:34;96981.06;;;3.70;100.00
77574;BME280;66710;48.868;9.080;2024-01-06T03:44:59;96981.06;;;3.70;100.00
77574;BME280;66710;48.868;9.080;2024-01-06T03:47:24;96984.28;;;3.67;100.00
77574;BME280;66710;48.868;9.080;2024-01-06T03:49:50;96976.06;;;3.56;100.00
77574;BME280;66710;48.868;9.080;2024-01-06T03:52:21;96977.78;;;3.63;100.00
77574;BME280;66710;48.868;9.080;2024-01-06T03:54:52;96977.78;;;3.63;100.00
77574;BME280;66710;48.868;9.080;2024-01-06T03:57:28;96983.34;;;3.56;100.00
77574;BME280;66710;48.868;9.080;2024-01-06T03:59:53;96987.44;;;3.58;100.00
77574;BME280;66710;48.868;9.080;2024-01-06T04:02:18;96986.28;;;3.54;100.00
77574;BME280;66710;48.868;9.080;2024-01-06T04:04:44;96978.44;;;3.48;100.00
77574;BME280;66710;48.868;9.080;2024-01-06T04:07:09;96982.72;;;3.49;100.00
77574;BME280;66710;48.868;9.080;2024-01-06T04:09:34;96977.66;;;3.52;100.00
77574;BME280;66710;48.868;9.080;2024-01-06T04:12:00;96982.53;;;3.55;100.00
77574;BME280;66710;48.868;9.080;2024-01-06T04:14:29;96989.19;;;3.48;100.00
77574;BME280;66710;48.868;9.080;2024-01-06T04:16:54;96988.47;;;3.57;100.00
77574;BME280;66710;48.868;9.080;2024-01-06T04:19:21;96990.56;;;3.50;100.00
77574;BME280;66710;48.868;9.080;2024-01-06T04:21:46;96988.47;;;3.57;100.00
77574;BME280;66710;48.868;9.080;2024-01-06T04:24:13;96994.13;;;3.56;100.00
77574;BME280;66710;48.868;9.080;2024-01-06T04:26:38;96984.81;;;3.41;100.00
77574;BME280;66710;48.868;9.080;2024-01-06T04:29:03;96994.78;;;3.41;100.00
77574;BME280;66710;48.868;9.080;2024-01-06T04:31:28;96999.00;;;3.37;100.00
77574;BME280;66710;48.868;9.080;2024-01-06T04:33:54;97001.16;;;3.35;100.00
77574;BME280;66710;48.868;9.080;2024-01-06T04:36:19;97003.84;;;3.35;100.00
77574;BME280;66710;48.868;9.080;2024-01-06T04:38:44;97012.69;;;3.30;100.00
77574;BME280;66710;48.868;9.080;2024-01-06T04:41:09;96994.09;;;3.29;100.00
77574;BME280;66710;48.868;9.080;2024-01-06T04:43:35;96998.94;;;3.32;100.00
77574;BME280;66710;48.868;9.080;2024-01-06T04:46:00;97003.78;;;3.30;100.00
77574;BME280;66710;48.868;9.080;2024-01-06T04:48:25;96996.16;;;3.21;100.00
77574;BME280;66710;48.868;9.080;2024-01-06T04:50:51;97000.78;;;3.26;100.00
77574;BME280;66710;48.868;9.080;2024-01-06T04:53:16;97006.38;;;3.19;100.00
77574;BME280;66710;48.868;9.080;2024-01-06T04:55:41;97003.66;;;3.19;100.00
77574;BME280;66710;48.868;9.080;2024-01-06T04:58:06;97013.22;;;3.10;100.00
77574;BME280;66710;48.868;9.080;2024-01-06T05:00:32;97011.09;;;3.12;100.00
77574;BME280;66710;48.868;9.080;2024-01-06T05:02:57;97015.53;;;3.01;100.00
77574;BME280;66710;48.868;9.080;2024-01-06T05:05:22;97016.44;;;3.07;100.00
77574;BME280;66710;48.868;9.080;2024-01-06T05:07:48;97020.41;;;3.04;100.00
77574;BME280;66710;48.868;9.080;2024-01-06T05:10:13;97024.69;;;3.00;100.00
77574;BME280;66710;48.868;9.080;2024-01-06T05:12:38;97025.66;;;2.94;100.00
77574;BME280;66710;48.868;9.080;2024-01-06T05:15:04;97029.09;;;2.90;100.00
77574;BME280;66710;48.868;9.080;2024-01-06T05:17:29;97030.06;;;3.00;100.00
77574;BME280;66710;48.868;9.080;2024-01-06T05:19:54;97030.53;;;2.97;100.00
77574;BME280;66710;48.868;9.080;2024-01-06T05:22:20;97025.00;;;3.04;100.00
77574;BME280;66710;48.868;9.080;2024-01-06T05:24:45;97024.75;;;3.06;100.00
77574;BME280;66710;48.868;9.080;2024-01-06T05:27:11;97023.97;;;3.10;100.00
77574;BME280;66710;48.868;9.080;2024-01-06T05:29:36;97032.63;;;3.12;100.00
77574;BME280;66710;48.868;9.080;2024-01-06T05:32:02;97033.69;;;3.11;100.00
77574;BME280;66710;48.868;9.080;2024-01-06T05:34:27;97037.19;;;3.12;100.00
77574;BME280;66710;48.868;9.080;2024-01-06T05:36:52;97038.19;;;3.06;100.00
77574;BME280;66710;48.868;9.080;2024-01-06T05:39:18;97038.50;;;3.09;100.00
77574;BME280;66710;48.868;9.080;2024-01-06T05:41:43;97048.19;;;3.10;100.00
77574;BME280;66710;48.868;9.080;2024-01-06T05:44:08;97045.50;;;3.10;100.00
77574;BME280;66710;48.868;9.080;2024-01-06T05:46:34;97050.88;;;3.10;100.00
77574;BME280;66710;48.868;9.080;2024-01-06T05:48:59;97046.59;;;3.09;100.00
77574;BME280;66710;48.868;9.080;2024-01-06T05:51:25;97048.75;;;3.12;100.00
77574;BME280;66710;48.868;9.080;2024-01-06T05:53:50;97038.31;;;3.16;100.00
77574;BME280;66710;48.868;9.080;2024-01-06T05:56:25;97044.28;;;3.18;100.00
77574;BME280;66710;48.868;9.080;2024-01-06T05:58:51;97055.53;;;3.15;100.00
77574;BME280;66710;48.868;9.080;2024-01-06T06:01:17;97055.47;;;3.10;100.00
77574;BME280;66710;48.868;9.080;2024-01-06T06:03:42;97063.84;;;3.13;100.00
77574;BME280;66710;48.868;9.080;2024-01-06T06:06:08;97063.69;;;3.20;100.00
77574;BME280;66710;48.868;9.080;2024-01-06T06:08:33;97078.00;;;3.26;100.00
77574;BME280;66710;48.868;9.080;2024-01-06T06:10:58;97078.25;;;3.24;100.00
77574;BME280;66710;48.868;9.080;2024-01-06T06:13:28;97083.63;;;3.24;100.00
77574;BME280;66710;48.868;9.080;2024-01-06T06:15:53;97090.91;;;3.23;100.00
77574;BME280;66710;48.868;9.080;2024-01-06T06:18:20;97086.81;;;3.21;100.00
77574;BME280;66710;48.868;9.080;2024-01-06T06:20:45;97085.78;;;3.22;100.00
77574;BME280;66710;48.868;9.080;2024-01-06T06:23:10;97086.81;;;3.21;100.00
77574;BME280;66710;48.868;9.080;2024-01-06T06:25:38;97090.34;;;3.21;100.00
77574;BME280;66710;48.868;9.080;2024-01-06T06:28:04;97093.53;;;3.18;100.00
77574;BME280;66710;48.868;9.080;2024-01-06T06:30:29;97094.09;;;3.20;100.00
77574;BME280;66710;48.868;9.080;2024-01-06T06:32:54;97104.75;;;3.32;100.00
77574;BME280;66710;48.868;9.080;2024-01-06T06:35:19;97102.63;;;3.34;100.00
77574;BME280;66710;48.868;9.080;2024-01-06T06:37:45;97108.31;;;3.38;100.00
77574;BME280;66710;48.868;9.080;2024-01-06T06:40:10;97099.06;;;3.51;100.00
77574;BME280;66710;48.868;9.080;2024-01-06T06:42:36;97110.94;;;3.33;100.00
77574;BME280;66710;48.868;9.080;2024-01-06T06:45:01;97108.81;;;3.35;100.00
77574;BME280;66710;48.868;9.080;2024-01-06T06:47:26;97106.13;;;3.35;100.00
77574;BME280;66710;48.868;9.080;2024-01-06T06:49:51;97107.75;;;3.36;100.00
77574;BME280;66710;48.868;9.080;2024-01-06T06:52:17;97114.50;;;3.38;100.00
77574;BME280;66710;48.868;9.080;2024-01-06T06:54:42;97119.09;;;3.38;100.00
77574;BME280;66710;48.868;9.080;2024-01-06T06:57:07;97129.94;;;3.43;100.00
77574;BME280;66710;48.868;9.080;2024-01-06T06:59:32;97117.59;;;3.47;100.00
77574;BME280;66710;48.868;9.080;2024-01-06T07:01:58;97124.94;;;3.52;100.00
77574;BME280;66710;48.868;9.080;2024-01-06T07:04:23;97122.56;;;3.55;100.00
77574;BME280;66710;48.868;9.080;2024-01-06T07:06:49;97120.66;;;3.56;100.00
77574;BME280;66710;48.868;9.080;2024-01-06T07:09:15;97125.31;;;3.60;100.00
77574;BME280;66710;48.868;9.080;2024-01-06T07:11:40;97131.75;;;3.59;100.00
77574;BME280;66710;48.868;9.080;2024-01-06T07:14:05;97132.06;;;3.63;100.00
77574;BME280;66710;48.868;9.080;2024-01-06T07:16:30;97127.75;;;3.62;100.00
77574;BME280;66710;48.868;9.080;2024-01-06T07:18:56;97127.56;;;3.69;100.00
77574;BME280;66710;48.868;9.080;2024-01-06T07:21:21;97134.28;;;3.66;100.00
77574;BME280;66710;48.868;9.080;2024-01-06T07:23:48;97137.47;;;3.63;100.00
77574;BME280;66710;48.868;9.080;2024-01-06T07:26:13;97139.91;;;3.65;100.00
77574;BME280;66710;48.868;9.080;2024-01-06T07:28:38;97136.22;;;3.71;100.00
77574;BME280;66710;48.868;9.080;2024-01-06T07:31:04;97140.47;;;3.67;100.00
77574;BME280;66710;48.868;9.080;2024-01-06T07:33:29;97147.06;;;3.76;100.00
77574;BME280;66710;48.868;9.080;2024-01-06T07:35:55;97147.38;;;3.79;100.00
77574;BME280;66710;48.868;9.080;2024-01-06T07:38:20;97146.78;;;3.77;100.00
77574;BME280;66710;48.868;9.080;2024-01-06T07:40:45;97143.38;;;3.82;100.00
77574;BME280;66710;48.868;9.080;2024-01-06T07:43:11;97149.75;;;3.76;100.00
77574;BME280;66710;48.868;9.080;2024-01-06T07:45:37;97152.78;;;3.79;100.00
77574;BME280;66710;48.868;9.080;2024-01-06T07:48:03;97158.47;;;3.83;100.00
77574;BME280;66710;48.868;9.080;2024-01-06T07:50:28;97157.38;;;3.84;100.00
77574;BME280;66710;48.868;9.080;2024-01-06T07:52:54;97163.34;;;3.86;100.00
77574;BME280;66710;48.868;9.080;2024-01-06T07:55:19;97157.69;;;3.88;100.00
77574;BME280;66710;48.868;9.080;2024-01-06T07:57:44;97154.03;;;3.94;100.00
77574;BME280;66710;48.868;9.080;2024-01-06T08:00:10;97144.53;;;4.13;100.00
77574;BME280;66710;48.868;9.080;2024-01-06T08:02:40;97149.19;;;3.96;100.00
77574;BME280;66710;48.868;9.080;2024-01-06T08:05:05;97150.25;;;3.95;100.00
77574;BME280;66710;48.868;9.080;2024-01-06T08:07:32;97159.41;;;3.94;100.00
77574;BME280;66710;48.868;9.080;2024-01-06T08:09:57;97155.38;;;3.96;100.00
77574;BME280;66710;48.868;9.080;2024-01-06T08:12:22;97166.66;;;3.93;100.00
77574;BME280;66710;48.868;9.080;2024-01-06T08:14:47;97167.44;;;3.89;100.00
77574;BME280;66710;48.868;9.080;2024-01-06T08:17:13;97164.78;;;3.94;100.00
77574;BME280;66710;48.868;9.080;2024-01-06T08:19:38;97169.34;;;3.93;100.00
77574;BME280;66710;48.868;9.080;2024-01-06T08:22:03;97167.25;;;3.95;100.00
77574;BME280;66710;48.868;9.080;2024-01-06T08:24:29;97168.31;;;3.94;100.00
77574;BME280;66710;48.868;9.080;2024-01-06T08:26:54;97170.75;;;3.96;100.00
77574;BME280;66710;48.868;9.080;2024-01-06T08:29:19;97173.19;;;3.97;100.00
77574;BME280;66710;48.868;9.080;2024-01-06T08:31:45;97178.84;;;3.96;100.00
77574;BME280;66710;48.868;9.080;2024-01-06T08:34:10;97181.28;;;3.97;100.00
77574;BME280;66710;48.868;9.080;2024-01-06T08:36:35;97184.72;;;3.93;100.00
77574;BME280;66710;48.868;9.080;2024-01-06T08:39:01;97190.97;;;3.98;100.00
77574;BME280;66710;48.868;9.080;2024-01-06T08:41:26;97188.41;;;4.09;100.00
77574;BME280;66710;48.868;9.080;2024-01-06T08:43:51;97189.53;;;4.13;100.00
77574;BME280;66710;48.868;9.080;2024-01-06T08:46:16;97187.59;;;4.08;100.00
77574;BME280;66710;48.868;9.080;2024-01-06T08:48:42;97191.09;;;4.09;100.00
77574;BME280;66710;48.868;9.080;2024-01-06T08:51:07;97198.69;;;4.12;100.00
77574;BME280;66710;48.868;9.080;2024-01-06T08:53:33;97196.50;;;4.09;100.00
77574;BME280;66710;48.868;9.080;2024-01-06T08:55:58;97201.16;;;4.13;100.00
77574;BME280;66710;48.868;9.080;2024-01-06T08:58:23;97201.41;;;4.12;100.00
77574;BME280;66710;48.868;9.080;2024-01-06T09:00:48;97201.06;;;4.08;100.00
77574;BME280;66710;48.868;9.080;2024-01-06T09:03:14;97205.38;;;4.09;100.00
77574;BME280;66710;48.868;9.080;2024-01-06T09:05:39;97198.19;;;4.15;100.00
77574;BME280;66710;48.868;9.080;2024-01-06T09:08:05;97206.03;;;4.16;100.00
77574;BME280;66710;48.868;9.080;2024-01-06T09:10:30;97208.75;;;4.16;100.00
77574;BME280;66710;48.868;9.080;2024-01-06T09:12:56;97204.59;;;4.31;100.00
77574;BME280;66710;48.868;9.080;2024-01-06T09:27:57;97223.78;;;4.34;100.00
77574;BME280;66710;48.868;9.080;2024-01-06T09:30:23;97224.25;;;4.31;100.00
77574;BME280;66710;48.868;9.080;2024-01-06T09:32:50;97225.38;;;4.35;100.00
77574;BME280;66710;48.868;9.080;2024-01-06T09:35:15;97234.00;;;4.32;100.00
77574;BME280;66710;48.868;9.080;2024-01-06T09:37:40;97235.78;;;4.27;100.00
77574;BME280;66710;48.868;9.080;2024-01-06T09:40:10;97229.84;;;4.25;100.00
77574;BME280;66710;48.868;9.080;2024-01-06T09:42:36;97238.03;;;4.13;100.00
77574;BME280;66710;48.868;9.080;2024-01-06T09:45:02;97241.81;;;4.12;100.00
77574;BME280;66710;48.868;9.080;2024-01-06T09:47:28;97249.66;;;4.13;100.00
77574;BME280;66710;48.868;9.080;2024-01-06T09:50:01;97253.09;;;4.09;100.00
77574;BME280;66710;48.868;9.080;2024-01-06T09:52:26;97254.72;;;4.10;100.00
77574;BME280;66710;48.868;9.080;2024-01-06T09:54:55;97254.19;;;4.08;100.00
77574;BME280;66710;48.868;9.080;2024-01-06T09:57:21;97256.09;;;4.12;100.00
77574;BME280;66710;48.868;9.080;2024-01-06T09:59:47;97248.47;;;4.04;100.00
77574;BME280;66710;48.868;9.080;2024-01-06T10:02:16;97250.06;;;4.05;100.00
77574;BME280;66710;48.868;9.080;2024-01-06T10:04:45;97243.41;;;4.08;100.00
77574;BME280;66710;48.868;9.080;2024-01-06T10:07:13;97252.34;;;4.13;100.00
77574;BME280;66710;48.868;9.080;2024-01-06T10:09:40;97246.91;;;4.08;100.00
77574;BME280;66710;48.868;9.080;2024-01-06T10:12:06;97252.19;;;4.20;100.00
77574;BME280;66710;48.868;9.080;2024-01-06T10:14:31;97253.06;;;4.26;100.00
77574;BME280;66710;48.868;9.080;2024-01-06T10:16:56;97256.38;;;4.33;100.00
77574;BME280;66710;48.868;9.080;2024-01-06T10:19:23;97255.97;;;4.46;100.00
77574;BME280;66710;48.868;9.080;2024-01-06T10:21:49;97253.19;;;4.36;100.00
77574;BME280;66710;48.868;9.080;2024-01-06T10:24:14;97255.88;;;4.36;100.00
77574;BME280;66710;48.868;9.080;2024-01-06T10:26:39;97251.66;;;4.23;100.00
77574;BME280;66710;48.868;9.080;2024-01-06T10:29:05;97253.53;;;4.23;100.00
77574;BME280;66710;48.868;9.080;2024-01-06T10:31:30;97254.47;;;4.33;100.00
77574;BME280;66710;48.868;9.080;2024-01-06T10:33:55;97256.91;;;4.13;100.00
77574;BME280;66710;48.868;9.080;2024-01-06T10:36:23;97252.50;;;4.24;100.00
77574;BME280;66710;48.868;9.080;2024-01-06T10:38:49;97256.72;;;4.20;100.00
77574;BME280;66710;48.868;9.080;2024-01-06T10:41:16;97251.97;;;4.27;100.00
77574;BME280;66710;48.868;9.080;2024-01-06T10:43:42;97260.81;;;4.22;100.00
77574;BME280;66710;48.868;9.080;2024-01-06T10:46:09;97261.06;;;4.21;100.00
77574;BME280;66710;48.868;9.080;2024-01-06T10:48:38;97256.25;;;4.23;100.00
77574;BME280;66710;48.868;9.080;2024-01-06T10:51:07;97256.56;;;4.04;100.00
77574;BME280;66710;48.868;9.080;2024-01-06T10:53:33;97258.63;;;4.19;100.00
77574;BME280;66710;48.868;9.080;2024-01-06T10:56:07;97252.91;;;4.15;100.00
77574;BME280;66710;48.868;9.080;2024-01-06T10:58:36;97254.28;;;4.18;100.00
77574;BME280;66710;48.868;9.080;2024-01-06T11:01:10;97251.34;;;4.20;100.00
77574;BME280;66710;48.868;9.080;2024-01-06T11:03:37;97246.25;;;4.23;100.00
77574;BME280;66710;48.868;9.080;2024-01-06T11:06:05;97252.41;;;4.18;100.00
77574;BME280;66710;48.868;9.080;2024-01-06T11:08:32;97248.50;;;4.09;100.00
77574;BME280;66710;48.868;9.080;2024-01-06T11:10:59;97246.97;;;4.13;100.00
77574;BME280;66710;48.868;9.080;2024-01-06T11:13:24;97256.81;;;4.25;100.00
77574;BME280;66710;48.868;9.080;2024-01-06T11:15:51;97260.88;;;4.27;100.00
77574;BME280;66710;48.868;9.080;2024-01-06T11:18:36;97249.28;;;4.27;100.00
77574;BME280;66710;48.868;9.080;2024-01-06T11:23:42;97253.69;;;4.33;100.00
77574;BME280;66710;48.868;9.080;2024-01-06T11:26:07;97248.34;;;4.38;100.00
77574;BME280;66710;48.868;9.080;2024-01-06T11:28:46;97249.34;;;4.32;100.00
77574;BME280;66710;48.868;9.080;2024-01-06T11:31:12;97250.19;;;4.32;100.00
77574;BME280;66710;48.868;9.080;2024-01-06T11:33:44;97254.38;;;4.45;100.00
77574;BME280;66710;48.868;9.080;2024-01-06T11:36:09;97244.19;;;4.52;100.00
77574;BME280;66710;48.868;9.080;2024-01-06T11:38:38;97245.47;;;4.45;100.00
77574;BME280;66710;48.868;9.080;2024-01-06T11:41:06;97238.06;;;4.35;100.00
77574;BME280;66710;48.868;9.080;2024-01-06T11:43:34;97234.78;;;4.55;100.00
77574;BME280;66710;48.868;9.080;2024-01-06T11:46:01;97228.38;;;4.39;100.00
77574;BME280;66710;48.868;9.080;2024-01-06T11:48:29;97230.34;;;4.44;100.00
77574;BME280;66710;48.868;9.080;2024-01-06T11:50:55;97226.59;;;4.45;100.00
77574;BME280;66710;48.868;9.080;2024-01-06T11:53:20;97223.00;;;4.39;100.00
77574;BME280;66710;48.868;9.080;2024-01-06T11:55:48;97224.09;;;4.38;100.00
77574;BME280;66710;48.868;9.080;2024-01-06T11:58:16;97223.72;;;4.29;100.00
77574;BME280;66710;48.868;9.080;2024-01-06T12:00:41;97220.31;;;4.39;100.00
77574;BME280;66710;48.868;9.080;2024-01-06T12:03:07;97215.81;;;4.45;100.00
77574;BME280;66710;48.868;9.080;2024-01-06T12:05:32;97216.50;;;4.35;100.00
77574;BME280;66710;48.868;9.080;2024-01-06T12:07:59;97213.28;;;4.38;100.00
77574;BME280;66710;48.868;9.080;2024-01-06T12:10:26;97215.44;;;4.36;100.00
77574;BME280;66710;48.868;9.080;2024-01-06T12:12:56;97211.91;;;4.35;100.00
77574;BME280;66710;48.868;9.080;2024-01-06T12:15:23;97216.78;;;4.39;100.00
77574;BME280;66710;48.868;9.080;2024-01-06T12:17:48;97219.50;;;4.39;100.00
77574;BME280;66710;48.868;9.080;2024-01-06T12:20:14;97210.91;;;4.42;100.00
77574;BME280;66710;48.868;9.080;2024-01-06T12:22:39;97218.13;;;4.36;100.00
77574;BME280;66710;48.868;9.080;2024-01-06T12:25:05;97211.72;;;4.42;100.00
77574;BME280;66710;48.868;9.080;2024-01-06T12:27:32;97221.75;;;4.47;100.00
77574;BME280;66710;48.868;9.080;2024-01-06T12:29:58;97223.19;;;4.54;100.00
77574;BME280;66710;48.868;9.080;2024-01-06T12:32:23;97213.34;;;4.43;100.00
77574;BME280;66710;48.868;9.080;2024-01-06T12:34:48;97222.25;;;4.44;100.00
77574;BME280;66710;48.868;9.080;2024-01-06T12:37:14;97216.63;;;4.45;100.00
77574;BME280;66710;48.868;9.080;2024-01-06T12:39:40;97214.72;;;4.46;100.00
77574;BME280;66710;48.868;9.080;2024-01-06T12:42:07;97213.53;;;4.36;100.00
77574;BME280;66710;48.868;9.080;2024-01-06T12:44:34;97213.16;;;4.28;100.00
77574;BME280;66710;48.868;9.080;2024-01-06T12:47:02;97219.38;;;4.28;100.00
77574;BME280;66710;48.868;9.080;2024-01-06T12:49:28;97221.25;;;4.28;100.00
77574;BME280;66710;48.868;9.080;2024-01-06T12:51:54;97218.31;;;4.29;100.00
77574;BME280;66710;48.868;9.080;2024-01-06T12:54:19;97221.06;;;4.34;100.00
77574;BME280;66710;48.868;9.080;2024-01-06T12:56:44;97213.66;;;4.25;100.00
77574;BME280;66710;48.868;9.080;2024-01-06T12:59:10;97215.50;;;4.19;100.00
77574;BME280;66710;48.868;9.080;2024-01-06T13:01:36;97213.91;;;4.23;100.00
77574;BME280;66710;48.868;9.080;2024-01-06T13:04:01;97212.38;;;4.27;100.00
77574;BME280;66710;48.868;9.080;2024-01-06T13:06:27;97220.16;;;4.24;100.00
77574;BME280;66710;48.868;9.080;2024-01-06T13:08:53;97211.94;;;4.13;100.00